Hanife Ka — TCA3678 — position and weather

sailwx.info

Track history (hours):
 
Tides and Currents Weather Stations Pressure Air Temp Water Temp Dewpoint Dewpoint Depression Visibility Wind Speed Wind Dir Waves Ship Positions

Hanife Ka

Last reported at 2017-Oct-20 11:11 UTC. Time now 2017-Oct-23 02:43 UTC.
Position N 45°40' E 036°45'.

Length 130 m; draft 4.6 m.

Type: Cargo ship. MMSI: 271044259.

Date/timePositionNaut miles runAvg speedWind from/ knotsBaromVisibWave heightAir tempDewpointWater temp
2017-Oct-20 11:11N 45°40' E 036°45'210.9
2017-Oct-20 11:00N 45°38' E 036°45'610.9
2017-Oct-20 10:30N 45°32' E 036°44'510.9
2017-Oct-20 10:00N 45°27' E 036°42'5 9.8
2017-Oct-20 09:30N 45°23' E 036°40'510.0
2017-Oct-20 09:00N 45°20' E 036°34'4 8.8
2017-Oct-20 08:30N 45°17' E 036°29'3 5.7
2017-Oct-20 08:00N 45°14' E 036°29'4 7.0
2017-Oct-20 07:30N 45°11' E 036°29'1 1.4
2017-Oct-20 06:55N 45°10' E 036°29'0 0.0
2017-Oct-20 06:28N 45°10' E 036°29'0 0.0
2017-Oct-20 05:31N 45°10' E 036°29'0 0.0
2017-Oct-20 05:28N 45°10' E 036°29'0 0.0
2017-Oct-20 04:58N 45°10' E 036°29'0 0.1
2017-Oct-20 04:14N 45°10' E 036°29'1 3.8
2017-Oct-20 04:00N 45°09' E 036°29'810.1
2017-Oct-20 03:10N 45°01' E 036°30'510.3
2017-Oct-20 02:43N 44°56' E 036°31'310.8
2017-Oct-20 02:28N 44°54' E 036°31'510.9
2017-Oct-20 02:00N 44°49' E 036°32'810.3
2017-Oct-20 01:16N 44°41' E 036°32'510.5
2017-Oct-20 00:49N 44°36' E 036°32'1510.5
2017-Oct-19 23:24N 44°22' E 036°31'410.7
2017-Oct-19 23:00N 44°17' E 036°31'510.9
2017-Oct-19 22:30N 44°12' E 036°31'510.8
2017-Oct-19 22:00N 44°06' E 036°31'510.6
2017-Oct-19 21:30N 44°01' E 036°30'510.7
2017-Oct-19 21:00N 43°56' E 036°30'610.7
2017-Oct-19 20:26N 43°50' E 036°29'  
2017-Oct-14 05:55N 46°19' E 030°42'2 4.8
2017-Oct-14 05:30N 46°20' E 030°39'0 0.0
2017-Oct-14 04:59N 46°20' E 030°39'0 0.0
2017-Oct-14 04:30N 46°20' E 030°39'0 0.0
2017-Oct-14 03:59N 46°20' E 030°39'0 0.0
2017-Oct-14 03:31N 46°20' E 030°39'0 0.0
2017-Oct-14 02:59N 46°20' E 030°39'0 0.0
2017-Oct-14 02:30N 46°20' E 030°39'0 0.0
2017-Oct-14 01:59N 46°20' E 030°39'0 0.0
2017-Oct-14 01:30N 46°20' E 030°39'0 0.0
2017-Oct-14 00:59N 46°20' E 030°39'0 0.0
2017-Oct-14 00:30N 46°20' E 030°39'0 0.0
2017-Oct-13 23:59N 46°20' E 030°39'0 0.0
2017-Oct-13 23:31N 46°20' E 030°39'0 0.0
2017-Oct-13 22:59N 46°20' E 030°39'0 0.0
2017-Oct-13 22:30N 46°20' E 030°39'0 0.0
2017-Oct-13 21:58N 46°20' E 030°39'0 0.0
2017-Oct-13 21:30N 46°20' E 030°39'0 0.0
2017-Oct-13 20:59N 46°20' E 030°39'0 0.0
2017-Oct-13 20:30N 46°20' E 030°39'0 0.0
2017-Oct-13 19:59N 46°20' E 030°39'0 0.0
2017-Oct-13 19:30N 46°20' E 030°39'0 0.0
2017-Oct-13 18:59N 46°20' E 030°39'0 0.0
2017-Oct-13 18:31N 46°20' E 030°39'0 0.0
2017-Oct-13 17:59N 46°20' E 030°39'0 0.0
2017-Oct-13 17:30N 46°20' E 030°39'0 0.0
2017-Oct-13 16:59N 46°20' E 030°39'0 0.0
2017-Oct-13 16:30N 46°20' E 030°39'0 0.0
2017-Oct-13 15:59N 46°20' E 030°39'0 0.0
2017-Oct-13 15:30N 46°20' E 030°39'0 0.0
2017-Oct-13 14:59N 46°20' E 030°39'0 0.0
2017-Oct-13 14:30N 46°20' E 030°39'0 0.0
2017-Oct-13 13:59N 46°20' E 030°39'0 0.0
2017-Oct-13 13:30N 46°20' E 030°39'0 0.0
2017-Oct-13 12:59N 46°20' E 030°39'0 0.0
2017-Oct-13 12:30N 46°20' E 030°39'0 0.0
2017-Oct-13 11:59N 46°20' E 030°39'0 0.0
2017-Oct-13 11:30N 46°20' E 030°39'0 0.0
2017-Oct-13 10:59N 46°20' E 030°39'0 0.0
2017-Oct-13 10:30N 46°20' E 030°39'0 0.0
2017-Oct-13 09:59N 46°20' E 030°39'0 0.0
2017-Oct-13 09:30N 46°20' E 030°39'0 0.0
2017-Oct-13 08:59N 46°20' E 030°39'0 0.0
2017-Oct-13 08:30N 46°20' E 030°39'0 0.0
2017-Oct-13 07:58N 46°20' E 030°39'0 0.0
2017-Oct-13 07:30N 46°20' E 030°39'0 0.0
2017-Oct-13 06:59N 46°20' E 030°39'2 2.9
2017-Oct-13 06:19N 46°19' E 030°42'2 7.3
2017-Oct-13 05:59N 46°19' E 030°45'5 9.7
2017-Oct-13 05:30N 46°17' E 030°52'510.0
2017-Oct-13 05:00N 46°16' E 030°59'510.3
2017-Oct-13 04:30N 46°12' E 031°04'510.5
2017-Oct-13 04:00N 46°08' E 031°09'510.4
2017-Oct-13 03:30N 46°04' E 031°13'510.5
2017-Oct-13 03:00N 45°59' E 031°16'510.5
2017-Oct-13 02:30N 45°54' E 031°17'510.3
2017-Oct-13 02:00N 45°49' E 031°18'510.4
2017-Oct-13 01:30N 45°44' E 031°19'510.4
2017-Oct-13 01:00N 45°39' E 031°20'910.4
2017-Oct-13 00:07N 45°29' E 031°22'110.3
2017-Oct-13 00:00N 45°28' E 031°22'610.5
2017-Oct-12 23:24N 45°22' E 031°23'5410.2
2017-Oct-12 18:07N 44°29' E 031°11'110.5
2017-Oct-12 18:00N 44°27' E 031°10'510.5
2017-Oct-12 17:30N 44°23' E 031°07'510.6
2017-Oct-12 17:00N 44°18' E 031°04'3 5.2
2017-Oct-12 16:30N 44°15' E 031°03'510.7
2017-Oct-12 16:00N 44°20' E 031°06'610.7
2017-Oct-12 15:26N 44°26' E 031°10'76 8.6
2017-Oct-12 06:37N 43°12' E 030°42'210.7
2017-Oct-12 06:28N 43°11' E 030°42'154 5.0
2017-Oct-10 23:41N 40°52' E 029°10'0 0.1
2017-Oct-10 23:29N 40°52' E 029°10'0 0.0
2017-Oct-10 22:47N 40°52' E 029°10'0 0.0
2017-Oct-10 22:29N 40°52' E 029°10'0 0.0
2017-Oct-10 21:59N 40°52' E 029°10'0 0.2
2017-Oct-10 21:30N 40°52' E 029°10'2 3.8
2017-Oct-10 21:00N 40°51' E 029°10'510.2
2017-Oct-10 20:30N 40°47' E 029°15'510.6
2017-Oct-10 20:00N 40°45' E 029°21'7 9.7
2017-Oct-10 19:17N 40°45' E 029°30'  
Track history (hours):
 
Tides and Currents Weather Stations Pressure Air Temp Water Temp Dewpoint Dewpoint Depression Visibility Wind Speed Wind Dir Waves Ship Positions

Hanife Ka

Last reported at 2017-Oct-20 11:11 UTC. Time now 2017-Oct-23 02:43 UTC.
Position N 45°40' E 036°45'.

Length 130 m; draft 4.6 m.

Type: Cargo ship. MMSI: 271044259.

Date/timePositionNaut miles runAvg speedWind from/ knotsBaromVisibWave heightAir tempDewpointWater temp
2017-Oct-20 11:11N 45°40' E 036°45'210.9
2017-Oct-20 11:00N 45°38' E 036°45'610.9
2017-Oct-20 10:30N 45°32' E 036°44'510.9
2017-Oct-20 10:00N 45°27' E 036°42'5 9.8
2017-Oct-20 09:30N 45°23' E 036°40'510.0
2017-Oct-20 09:00N 45°20' E 036°34'4 8.8
2017-Oct-20 08:30N 45°17' E 036°29'3 5.7
2017-Oct-20 08:00N 45°14' E 036°29'4 7.0
2017-Oct-20 07:30N 45°11' E 036°29'1 1.4
2017-Oct-20 06:55N 45°10' E 036°29'0 0.0
2017-Oct-20 06:28N 45°10' E 036°29'0 0.0
2017-Oct-20 05:31N 45°10' E 036°29'0 0.0
2017-Oct-20 05:28N 45°10' E 036°29'0 0.0
2017-Oct-20 04:58N 45°10' E 036°29'0 0.1
2017-Oct-20 04:14N 45°10' E 036°29'1 3.8
2017-Oct-20 04:00N 45°09' E 036°29'810.1
2017-Oct-20 03:10N 45°01' E 036°30'510.3
2017-Oct-20 02:43N 44°56' E 036°31'310.8
2017-Oct-20 02:28N 44°54' E 036°31'510.9
2017-Oct-20 02:00N 44°49' E 036°32'810.3
2017-Oct-20 01:16N 44°41' E 036°32'510.5
2017-Oct-20 00:49N 44°36' E 036°32'1510.5
2017-Oct-19 23:24N 44°22' E 036°31'410.7
2017-Oct-19 23:00N 44°17' E 036°31'510.9
2017-Oct-19 22:30N 44°12' E 036°31'510.8
2017-Oct-19 22:00N 44°06' E 036°31'510.6
2017-Oct-19 21:30N 44°01' E 036°30'510.7
2017-Oct-19 21:00N 43°56' E 036°30'610.7
2017-Oct-19 20:26N 43°50' E 036°29'  
2017-Oct-14 05:55N 46°19' E 030°42'2 4.8
2017-Oct-14 05:30N 46°20' E 030°39'0 0.0
2017-Oct-14 04:59N 46°20' E 030°39'0 0.0
2017-Oct-14 04:30N 46°20' E 030°39'0 0.0
2017-Oct-14 03:59N 46°20' E 030°39'0 0.0
2017-Oct-14 03:31N 46°20' E 030°39'0 0.0
2017-Oct-14 02:59N 46°20' E 030°39'0 0.0
2017-Oct-14 02:30N 46°20' E 030°39'0 0.0
2017-Oct-14 01:59N 46°20' E 030°39'0 0.0
2017-Oct-14 01:30N 46°20' E 030°39'0 0.0
2017-Oct-14 00:59N 46°20' E 030°39'0 0.0
2017-Oct-14 00:30N 46°20' E 030°39'0 0.0
2017-Oct-13 23:59N 46°20' E 030°39'0 0.0
2017-Oct-13 23:31N 46°20' E 030°39'0 0.0
2017-Oct-13 22:59N 46°20' E 030°39'0 0.0
2017-Oct-13 22:30N 46°20' E 030°39'0 0.0
2017-Oct-13 21:58N 46°20' E 030°39'0 0.0
2017-Oct-13 21:30N 46°20' E 030°39'0 0.0
2017-Oct-13 20:59N 46°20' E 030°39'0 0.0
2017-Oct-13 20:30N 46°20' E 030°39'0 0.0
2017-Oct-13 19:59N 46°20' E 030°39'0 0.0
2017-Oct-13 19:30N 46°20' E 030°39'0 0.0
2017-Oct-13 18:59N 46°20' E 030°39'0 0.0
2017-Oct-13 18:31N 46°20' E 030°39'0 0.0
2017-Oct-13 17:59N 46°20' E 030°39'0 0.0
2017-Oct-13 17:30N 46°20' E 030°39'0 0.0
2017-Oct-13 16:59N 46°20' E 030°39'0 0.0
2017-Oct-13 16:30N 46°20' E 030°39'0 0.0
2017-Oct-13 15:59N 46°20' E 030°39'0 0.0
2017-Oct-13 15:30N 46°20' E 030°39'0 0.0
2017-Oct-13 14:59N 46°20' E 030°39'0 0.0
2017-Oct-13 14:30N 46°20' E 030°39'0 0.0
2017-Oct-13 13:59N 46°20' E 030°39'0 0.0
2017-Oct-13 13:30N 46°20' E 030°39'0 0.0
2017-Oct-13 12:59N 46°20' E 030°39'0 0.0
2017-Oct-13 12:30N 46°20' E 030°39'0 0.0
2017-Oct-13 11:59N 46°20' E 030°39'0 0.0
2017-Oct-13 11:30N 46°20' E 030°39'0 0.0
2017-Oct-13 10:59N 46°20' E 030°39'0 0.0
2017-Oct-13 10:30N 46°20' E 030°39'0 0.0
2017-Oct-13 09:59N 46°20' E 030°39'0 0.0
2017-Oct-13 09:30N 46°20' E 030°39'0 0.0
2017-Oct-13 08:59N 46°20' E 030°39'0 0.0
2017-Oct-13 08:30N 46°20' E 030°39'0 0.0
2017-Oct-13 07:58N 46°20' E 030°39'0 0.0
2017-Oct-13 07:30N 46°20' E 030°39'0 0.0
2017-Oct-13 06:59N 46°20' E 030°39'2 2.9
2017-Oct-13 06:19N 46°19' E 030°42'2 7.3
2017-Oct-13 05:59N 46°19' E 030°45'5 9.7
2017-Oct-13 05:30N 46°17' E 030°52'510.0
2017-Oct-13 05:00N 46°16' E 030°59'510.3
2017-Oct-13 04:30N 46°12' E 031°04'510.5
2017-Oct-13 04:00N 46°08' E 031°09'510.4
2017-Oct-13 03:30N 46°04' E 031°13'510.5
2017-Oct-13 03:00N 45°59' E 031°16'510.5
2017-Oct-13 02:30N 45°54' E 031°17'510.3
2017-Oct-13 02:00N 45°49' E 031°18'510.4
2017-Oct-13 01:30N 45°44' E 031°19'510.4
2017-Oct-13 01:00N 45°39' E 031°20'910.4
2017-Oct-13 00:07N 45°29' E 031°22'110.3
2017-Oct-13 00:00N 45°28' E 031°22'610.5
2017-Oct-12 23:24N 45°22' E 031°23'5410.2
2017-Oct-12 18:07N 44°29' E 031°11'110.5
2017-Oct-12 18:00N 44°27' E 031°10'510.5
2017-Oct-12 17:30N 44°23' E 031°07'510.6
2017-Oct-12 17:00N 44°18' E 031°04'3 5.2
2017-Oct-12 16:30N 44°15' E 031°03'510.7
2017-Oct-12 16:00N 44°20' E 031°06'610.7
2017-Oct-12 15:26N 44°26' E 031°10'76 8.6
2017-Oct-12 06:37N 43°12' E 030°42'210.7
2017-Oct-12 06:28N 43°11' E 030°42'154 5.0
2017-Oct-10 23:41N 40°52' E 029°10'0 0.1
2017-Oct-10 23:29N 40°52' E 029°10'0 0.0
2017-Oct-10 22:47N 40°52' E 029°10'0 0.0
2017-Oct-10 22:29N 40°52' E 029°10'0 0.0
2017-Oct-10 21:59N 40°52' E 029°10'0 0.2
2017-Oct-10 21:30N 40°52' E 029°10'2 3.8
2017-Oct-10 21:00N 40°51' E 029°10'510.2
2017-Oct-10 20:30N 40°47' E 029°15'510.6
2017-Oct-10 20:00N 40°45' E 029°21'7 9.7
2017-Oct-10 19:17N 40°45' E 029°30'  

Dump ship's entire track history